Time;durP1;ratioP1;P1;durP2;ratioP2;P2;SDS_P1;SDS_P2;PMS_P1;PMS_P2;Temp;Humidity;BMP_temperature;BMP_pressure;BME280_temperature;BME280_humidity;BME280_pressure;Samples;Min_cycle;Max_cycle;Signal;HPM_P1;HPM_P2
2023/04/09 00:00:49;;;;;;;13.55;5.47;;;;;;;;;;5020864;28;20412;-46
2023/04/09 00:03:17;;;;;;;15.63;4.90;;;;;;;;;;5012316;28;20048;-48
2023/04/09 00:05:49;;;;;;;11.50;4.77;;;;;;;;;;5029103;28;20053;-45
2023/04/09 00:08:17;;;;;;;12.23;4.82;;;;;;;;;;5009193;28;20060;-48
2023/04/09 00:10:44;;;;;;;13.15;5.10;;;;;;;;;;5024757;28;20079;-45
2023/04/09 00:13:12;;;;;;;11.80;4.43;;;;;;;;;;5010897;28;20053;-46
2023/04/09 00:15:41;;;;;;;10.82;4.35;;;;;;;;;;5010804;28;20064;-46
2023/04/09 00:18:09;;;;;;;15.00;4.63;;;;;;;;;;5019301;28;20739;-48
2023/04/09 00:20:36;;;;;;;14.45;4.90;;;;;;;;;;5016511;28;20558;-48
2023/04/09 00:23:04;;;;;;;12.95;4.75;;;;;;;;;;5018783;28;20132;-46
2023/04/09 00:25:31;;;;;;;12.90;5.03;;;;;;;;;;5013883;28;20044;-47
2023/04/09 00:27:59;;;;;;;11.68;4.35;;;;;;;;;;5021097;28;20045;-46
2023/04/09 00:30:28;;;;;;;13.90;4.60;;;;;;;;;;5011087;28;20868;-48
2023/04/09 00:32:57;;;;;;;11.77;4.68;;;;;;;;;;5014641;28;20092;-45
2023/04/09 00:35:25;;;;;;;12.40;4.85;;;;;;;;;;5015973;28;20385;-48
2023/04/09 00:37:52;;;;;;;11.20;4.28;;;;;;;;;;5026992;28;20099;-46
2023/04/09 00:40:20;;;;;;;12.13;5.15;;;;;;;;;;5008173;28;20045;-46
2023/04/09 00:42:48;;;;;;;14.43;4.87;;;;;;;;;;5022095;28;20065;-45
2023/04/09 00:45:16;;;;;;;11.82;4.90;;;;;;;;;;5020848;28;20099;-46
2023/04/09 00:47:45;;;;;;;12.10;4.60;;;;;;;;;;5015332;28;20082;-48
2023/04/09 00:50:15;;;;;;;12.13;4.57;;;;;;;;;;5015355;28;20129;-46
2023/04/09 00:52:42;;;;;;;10.85;4.28;;;;;;;;;;5009054;28;20049;-47
2023/04/09 00:55:10;;;;;;;11.33;4.70;;;;;;;;;;5014836;28;20041;-46
2023/04/09 00:57:38;;;;;;;11.48;4.65;;;;;;;;;;5021345;28;20037;-45
2023/04/09 01:00:07;;;;;;;15.20;4.88;;;;;;;;;;5019467;28;20599;-45
2023/04/09 01:02:35;;;;;;;12.52;4.60;;;;;;;;;;5012843;28;20072;-46
2023/04/09 01:05:03;;;;;;;14.68;4.88;;;;;;;;;;5018273;28;20120;-47
2023/04/09 01:07:37;;;;;;;12.43;4.57;;;;;;;;;;5016943;28;20037;-45
2023/04/09 01:10:11;;;;;;;12.55;4.63;;;;;;;;;;5020960;28;20123;-46
2023/04/09 01:12:43;;;;;;;14.15;4.80;;;;;;;;;;5029984;28;20788;-46
2023/04/09 01:15:15;;;;;;;12.90;5.07;;;;;;;;;;5023733;28;20480;-47
2023/04/09 01:17:46;;;;;;;12.90;5.50;;;;;;;;;;5014947;28;20707;-47
2023/04/09 01:20:18;;;;;;;15.97;4.97;;;;;;;;;;5018641;28;20044;-48
2023/04/09 01:22:57;;;;;;;12.52;4.70;;;;;;;;;;5016623;28;20132;-45
2023/04/09 01:25:32;;;;;;;12.30;5.65;;;;;;;;;;5000218;28;20050;-48
2023/04/09 01:28:13;;;;;;;12.90;4.65;;;;;;;;;;5016217;28;20041;-48
2023/04/09 01:30:43;;;;;;;11.82;5.00;;;;;;;;;;5017150;28;20047;-48
2023/04/09 01:33:12;;;;;;;16.03;5.37;;;;;;;;;;5009753;28;20037;-47
2023/04/09 01:35:41;;;;;;;12.45;5.00;;;;;;;;;;5012791;28;20068;-46
2023/04/09 01:38:10;;;;;;;12.23;4.50;;;;;;;;;;4999806;28;20052;-48
2023/04/09 01:40:38;;;;;;;13.15;4.75;;;;;;;;;;5013982;28;20041;-47
2023/04/09 01:43:06;;;;;;;12.07;4.43;;;;;;;;;;5017576;28;20120;-46
2023/04/09 01:45:35;;;;;;;10.87;4.73;;;;;;;;;;5012449;28;20419;-47
2023/04/09 01:48:04;;;;;;;12.23;4.85;;;;;;;;;;5012401;28;20045;-48
2023/04/09 01:50:32;;;;;;;11.10;4.55;;;;;;;;;;5017207;28;20038;-46
2023/04/09 01:53:00;;;;;;;12.07;5.05;;;;;;;;;;5017745;28;20080;-48
2023/04/09 01:55:27;;;;;;;12.98;4.60;;;;;;;;;;5013465;28;20049;-47
2023/04/09 01:57:55;;;;;;;12.20;4.47;;;;;;;;;;5010878;28;20140;-47
2023/04/09 02:00:23;;;;;;;11.07;4.30;;;;;;;;;;5020017;28;20111;-47
2023/04/09 02:02:55;;;;;;;12.27;4.68;;;;;;;;;;5008514;28;20042;-47
2023/04/09 02:05:25;;;;;;;12.23;4.63;;;;;;;;;;5018906;28;20029;-48
2023/04/09 02:07:55;;;;;;;14.75;4.93;;;;;;;;;;5021354;28;20072;-48
2023/04/09 02:10:26;;;;;;;11.87;4.47;;;;;;;;;;5010050;28;20037;-48
2023/04/09 02:12:54;;;;;;;11.02;4.72;;;;;;;;;;5015379;28;20073;-45
2023/04/09 02:15:22;;;;;;;13.63;5.97;;;;;;;;;;5013610;28;20073;-48
2023/04/09 02:17:50;;;;;;;15.30;5.47;;;;;;;;;;5016070;28;20044;-47
2023/04/09 02:20:20;;;;;;;12.30;5.05;;;;;;;;;;5020021;28;20506;-46
2023/04/09 02:22:48;;;;;;;13.27;5.37;;;;;;;;;;5008000;28;20452;-48
2023/04/09 02:25:16;;;;;;;13.93;5.20;;;;;;;;;;5018857;28;20068;-47
2023/04/09 02:27:44;;;;;;;11.13;4.03;;;;;;;;;;5014234;28;20040;-46
2023/04/09 02:30:12;;;;;;;12.23;4.95;;;;;;;;;;5014480;28;20076;-47
2023/04/09 02:32:39;;;;;;;13.57;4.72;;;;;;;;;;5011258;28;20057;-46
2023/04/09 02:35:07;;;;;;;12.40;4.37;;;;;;;;;;5013589;28;20049;-46
2023/04/09 02:37:36;;;;;;;12.45;4.65;;;;;;;;;;5021712;28;20041;-46
2023/04/09 02:40:04;;;;;;;11.93;4.72;;;;;;;;;;5010066;28;20037;-46
2023/04/09 02:42:32;;;;;;;13.18;4.85;;;;;;;;;;5017260;28;20482;-47
2023/04/09 02:45:00;;;;;;;11.65;4.80;;;;;;;;;;5021701;28;20081;-46
2023/04/09 02:47:29;;;;;;;12.50;4.80;;;;;;;;;;5006354;28;20124;-46
2023/04/09 02:49:56;;;;;;;15.25;5.28;;;;;;;;;;5024857;28;20037;-49
2023/04/09 02:52:24;;;;;;;12.15;4.55;;;;;;;;;;5018134;28;20116;-48
2023/04/09 02:54:53;;;;;;;13.98;4.93;;;;;;;;;;5026094;28;20072;-45
2023/04/09 02:57:21;;;;;;;14.75;5.03;;;;;;;;;;5002429;28;20124;-48
2023/04/09 02:59:49;;;;;;;13.67;5.30;;;;;;;;;;5017800;28;20063;-46
2023/04/09 03:02:16;;;;;;;12.27;4.32;;;;;;;;;;5017667;28;20099;-47
2023/04/09 03:04:44;;;;;;;13.43;5.57;;;;;;;;;;5026436;28;20067;-48
2023/04/09 03:07:12;;;;;;;15.05;4.90;;;;;;;;;;5014931;28;20172;-47
2023/04/09 03:09:40;;;;;;;14.65;5.25;;;;;;;;;;5016238;28;20041;-47
2023/04/09 03:12:09;;;;;;;14.70;5.10;;;;;;;;;;5023105;28;20039;-45
2023/04/09 03:14:36;;;;;;;13.75;5.65;;;;;;;;;;5015871;28;20052;-47
2023/04/09 03:17:04;;;;;;;14.20;4.57;;;;;;;;;;5019520;28;20119;-47
2023/04/09 03:19:31;;;;;;;13.52;4.72;;;;;;;;;;5014743;28;20040;-47
2023/04/09 03:22:00;;;;;;;11.18;4.40;;;;;;;;;;5052298;28;21016;-45
2023/04/09 03:24:27;;;;;;;12.70;4.37;;;;;;;;;;5002490;28;20496;-45
2023/04/09 03:26:57;;;;;;;14.48;4.65;;;;;;;;;;5023337;28;20099;-46
2023/04/09 03:29:26;;;;;;;15.13;5.82;;;;;;;;;;5028943;28;20451;-46
2023/04/09 03:31:54;;;;;;;13.00;4.82;;;;;;;;;;5016954;28;20096;-45
2023/04/09 03:34:23;;;;;;;12.40;4.78;;;;;;;;;;5019049;28;20045;-45
2023/04/09 03:36:51;;;;;;;12.27;4.03;;;;;;;;;;5020490;28;20041;-48
2023/04/09 03:39:18;;;;;;;14.70;4.88;;;;;;;;;;5012647;28;20106;-45
2023/04/09 03:41:46;;;;;;;13.52;4.82;;;;;;;;;;5026116;28;20041;-46
2023/04/09 03:44:13;;;;;;;16.17;5.57;;;;;;;;;;5013390;28;20115;-49
2023/04/09 03:46:42;;;;;;;15.60;5.82;;;;;;;;;;5012971;28;20037;-46
2023/04/09 03:49:10;;;;;;;15.63;5.90;;;;;;;;;;5013207;28;20096;-49
2023/04/09 03:51:38;;;;;;;13.05;5.75;;;;;;;;;;5012930;28;20140;-49
2023/04/09 03:54:05;;;;;;;16.23;6.35;;;;;;;;;;5022840;28;20123;-49
2023/04/09 03:56:33;;;;;;;16.02;5.82;;;;;;;;;;5013119;28;20815;-46
2023/04/09 03:59:01;;;;;;;16.38;6.18;;;;;;;;;;5018269;28;20051;-46
2023/04/09 04:01:29;;;;;;;15.73;5.70;;;;;;;;;;5028352;28;20099;-47
2023/04/09 04:03:58;;;;;;;15.68;5.28;;;;;;;;;;5017421;28;20080;-48
2023/04/09 04:06:26;;;;;;;16.73;5.30;;;;;;;;;;5006745;28;20042;-47
2023/04/09 04:08:53;;;;;;;12.23;4.60;;;;;;;;;;5014215;28;20045;-47
2023/04/09 04:11:21;;;;;;;14.70;5.32;;;;;;;;;;5021942;28;20544;-46
2023/04/09 04:13:49;;;;;;;17.83;5.13;;;;;;;;;;5029733;28;20404;-49
2023/04/09 04:16:17;;;;;;;15.80;5.70;;;;;;;;;;5016357;28;20632;-45
2023/04/09 04:18:45;;;;;;;15.52;5.82;;;;;;;;;;5018569;28;20116;-49
2023/04/09 04:21:14;;;;;;;18.27;5.32;;;;;;;;;;5018181;28;20151;-49
2023/04/09 04:23:42;;;;;;;14.40;5.50;;;;;;;;;;5019287;28;20056;-47
2023/04/09 04:26:10;;;;;;;17.23;6.40;;;;;;;;;;5015520;28;20069;-48
2023/04/09 04:28:38;;;;;;;16.33;6.05;;;;;;;;;;5011151;28;20148;-50
2023/04/09 04:31:07;;;;;;;16.45;6.45;;;;;;;;;;5026762;28;20053;-47
2023/04/09 04:33:35;;;;;;;17.98;5.97;;;;;;;;;;5014727;28;20038;-46
2023/04/09 04:36:06;;;;;;;14.75;5.85;;;;;;;;;;5017857;28;20132;-46
2023/04/09 04:38:35;;;;;;;17.67;6.10;;;;;;;;;;5017793;28;20458;-45
2023/04/09 04:41:03;;;;;;;15.75;6.07;;;;;;;;;;5005492;28;20047;-46
2023/04/09 04:43:31;;;;;;;16.65;6.47;;;;;;;;;;5027303;28;20064;-47
2023/04/09 04:45:58;;;;;;;20.80;6.75;;;;;;;;;;5019301;28;20042;-48
2023/04/09 04:48:28;;;;;;;18.13;6.63;;;;;;;;;;5020851;28;20041;-47
2023/04/09 04:50:56;;;;;;;17.97;6.53;;;;;;;;;;5013034;28;20682;-46
2023/04/09 04:53:24;;;;;;;17.83;6.30;;;;;;;;;;5022003;28;20051;-46
2023/04/09 04:55:53;;;;;;;17.20;5.95;;;;;;;;;;5020267;28;20505;-45
2023/04/09 04:58:21;;;;;;;19.15;6.85;;;;;;;;;;5023046;28;20037;-45
2023/04/09 05:00:49;;;;;;;17.00;6.47;;;;;;;;;;5018436;28;20048;-47
2023/04/09 05:03:16;;;;;;;16.40;6.03;;;;;;;;;;5025621;28;20037;-46
2023/04/09 05:05:45;;;;;;;16.35;6.20;;;;;;;;;;5015638;28;20041;-47
2023/04/09 05:08:12;;;;;;;16.98;7.15;;;;;;;;;;5019054;28;20685;-46
2023/04/09 05:10:40;;;;;;;19.50;6.90;;;;;;;;;;5021641;28;20041;-46
2023/04/09 05:13:09;;;;;;;15.18;5.90;;;;;;;;;;5019049;28;20129;-46
2023/04/09 05:15:38;;;;;;;18.30;6.57;;;;;;;;;;5018070;28;20061;-47
2023/04/09 05:18:05;;;;;;;15.13;6.55;;;;;;;;;;5020862;28;20084;-48
2023/04/09 05:20:33;;;;;;;17.67;6.68;;;;;;;;;;5023856;28;20037;-46
2023/04/09 05:23:01;;;;;;;20.55;6.18;;;;;;;;;;5016862;28;20041;-47
2023/04/09 05:25:28;;;;;;;18.83;6.85;;;;;;;;;;5017295;28;20046;-46
2023/04/09 05:27:56;;;;;;;16.63;6.70;;;;;;;;;;5016895;28;20509;-48
2023/04/09 05:30:25;;;;;;;21.33;8.07;;;;;;;;;;5024161;28;20045;-45
2023/04/09 05:32:52;;;;;;;21.20;7.32;;;;;;;;;;5016199;28;20068;-46
2023/04/09 05:35:20;;;;;;;21.13;8.32;;;;;;;;;;5009244;28;20038;-47
2023/04/09 05:37:48;;;;;;;19.13;7.32;;;;;;;;;;5018507;28;20056;-47
2023/04/09 05:40:15;;;;;;;24.03;7.40;;;;;;;;;;5015280;28;20124;-45
2023/04/09 05:42:43;;;;;;;19.05;7.55;;;;;;;;;;5009891;28;20033;-48
2023/04/09 05:45:11;;;;;;;17.38;7.25;;;;;;;;;;5016942;28;20033;-46
2023/04/09 05:47:40;;;;;;;20.10;8.15;;;;;;;;;;5017729;28;20087;-46
2023/04/09 05:50:07;;;;;;;20.23;7.22;;;;;;;;;;5019073;28;20107;-48
2023/04/09 05:52:35;;;;;;;19.27;7.33;;;;;;;;;;5016869;28;20500;-48
2023/04/09 05:55:04;;;;;;;21.17;7.55;;;;;;;;;;5020085;28;20095;-48
2023/04/09 05:57:32;;;;;;;22.52;7.60;;;;;;;;;;5018910;28;20049;-46
2023/04/09 05:59:59;;;;;;;25.13;7.47;;;;;;;;;;5013717;28;20092;-46
2023/04/09 06:02:27;;;;;;;20.10;7.65;;;;;;;;;;5017555;28;20037;-50
2023/04/09 06:04:57;;;;;;;20.03;8.43;;;;;;;;;;5020892;28;20502;-46
2023/04/09 06:07:24;;;;;;;18.15;6.97;;;;;;;;;;5012044;28;20057;-48
2023/04/09 06:09:52;;;;;;;24.33;8.45;;;;;;;;;;5014072;28;20088;-46
2023/04/09 06:12:20;;;;;;;20.45;7.25;;;;;;;;;;5016714;28;20033;-46
2023/04/09 06:14:48;;;;;;;20.50;6.95;;;;;;;;;;5015884;28;20048;-47
2023/04/09 06:17:16;;;;;;;20.63;8.17;;;;;;;;;;5022214;28;20060;-46
2023/04/09 06:19:44;;;;;;;25.00;9.00;;;;;;;;;;5019985;28;20041;-45
2023/04/09 06:22:12;;;;;;;23.40;8.20;;;;;;;;;;5022051;28;20282;-48
2023/04/09 06:24:40;;;;;;;20.42;7.38;;;;;;;;;;5016484;28;20033;-47
2023/04/09 06:27:08;;;;;;;20.77;7.82;;;;;;;;;;5012332;28;20030;-46
2023/04/09 06:29:35;;;;;;;22.80;7.43;;;;;;;;;;5021176;28;20419;-47
2023/04/09 06:32:04;;;;;;;26.05;8.27;;;;;;;;;;4966881;28;20065;-46
2023/04/09 06:34:32;;;;;;;24.85;9.27;;;;;;;;;;4971199;28;20042;-45
2023/04/09 06:36:59;;;;;;;22.10;8.98;;;;;;;;;;4977034;28;20053;-46
2023/04/09 06:39:28;;;;;;;25.02;9.38;;;;;;;;;;4975091;28;20033;-51
2023/04/09 06:41:56;;;;;;;26.53;10.07;;;;;;;;;;4981090;28;20468;-50
2023/04/09 06:44:24;;;;;;;25.38;9.25;;;;;;;;;;4969472;28;20152;-46
2023/04/09 06:46:52;;;;;;;26.73;9.68;;;;;;;;;;4976227;28;20134;-45
2023/04/09 06:49:20;;;;;;;26.95;9.40;;;;;;;;;;4972832;28;20050;-46
2023/04/09 06:51:47;;;;;;;29.10;9.65;;;;;;;;;;4968099;28;20043;-47
2023/04/09 06:54:15;;;;;;;27.97;10.10;;;;;;;;;;4977035;28;20034;-46
2023/04/09 06:56:45;;;;;;;26.48;9.75;;;;;;;;;;4983538;28;20614;-45
2023/04/09 06:59:12;;;;;;;24.75;9.65;;;;;;;;;;4974103;28;20553;-46
2023/04/09 07:01:40;;;;;;;30.55;9.95;;;;;;;;;;4978661;28;20033;-49
2023/04/09 07:04:08;;;;;;;30.60;10.50;;;;;;;;;;4980993;28;20048;-47
2023/04/09 07:06:36;;;;;;;23.50;9.60;;;;;;;;;;4963959;28;20568;-46
2023/04/09 07:09:03;;;;;;;27.80;9.30;;;;;;;;;;4974373;28;20112;-47
2023/04/09 07:11:32;;;;;;;32.75;11.07;;;;;;;;;;4969832;28;20050;-47
2023/04/09 07:14:01;;;;;;;33.47;10.63;;;;;;;;;;4980100;28;20053;-46
2023/04/09 07:16:28;;;;;;;33.25;11.50;;;;;;;;;;4967576;28;20038;-48
2023/04/09 07:18:56;;;;;;;34.73;11.57;;;;;;;;;;4969162;28;20467;-47
2023/04/09 07:21:24;;;;;;;35.30;11.30;;;;;;;;;;4966453;28;20121;-47
2023/04/09 07:23:52;;;;;;;31.10;10.45;;;;;;;;;;4979404;28;20034;-47
2023/04/09 07:26:20;;;;;;;34.35;11.73;;;;;;;;;;4971662;28;20042;-46
2023/04/09 07:28:48;;;;;;;33.17;11.32;;;;;;;;;;4972107;28;20089;-47
2023/04/09 07:31:17;;;;;;;40.67;10.33;;;;;;;;;;5001562;28;20073;-49
2023/04/09 07:33:45;;;;;;;30.30;11.50;;;;;;;;;;5018090;28;20099;-46
2023/04/09 07:36:13;;;;;;;37.05;12.07;;;;;;;;;;5011634;28;20038;-46
2023/04/09 07:38:40;;;;;;;34.00;10.40;;;;;;;;;;5045708;28;20400;-45
2023/04/09 07:41:10;;;;;;;35.63;11.23;;;;;;;;;;5015194;28;20037;-45
2023/04/09 07:43:38;;;;;;;34.43;10.47;;;;;;;;;;5023984;28;20040;-45
2023/04/09 07:46:06;;;;;;;37.83;10.90;;;;;;;;;;5015566;28;20048;-47
2023/04/09 07:48:35;;;;;;;33.67;11.45;;;;;;;;;;5025288;28;20451;-52
2023/04/09 07:51:04;;;;;;;35.58;12.50;;;;;;;;;;5019479;28;20041;-49
2023/04/09 07:53:31;;;;;;;33.70;11.85;;;;;;;;;;5003439;28;20037;-46
2023/04/09 07:55:59;;;;;;;31.60;10.67;;;;;;;;;;4990630;28;20501;-48
2023/04/09 07:58:27;;;;;;;32.05;12.02;;;;;;;;;;4991324;28;20055;-48
2023/04/09 08:00:54;;;;;;;33.22;11.75;;;;;;;;;;4986490;28;20130;-47
2023/04/09 08:03:22;;;;;;;30.20;10.23;;;;;;;;;;4993897;28;20908;-47
2023/04/09 08:05:51;;;;;;;33.47;11.32;;;;;;;;;;4993788;28;20049;-48
2023/04/09 08:08:20;;;;;;;34.40;11.23;;;;;;;;;;5042804;28;20294;-50
2023/04/09 08:10:48;;;;;;;39.78;11.65;;;;;;;;;;5014037;28;20463;-46
2023/04/09 08:13:16;;;;;;;30.80;11.18;;;;;;;;;;5011586;28;20040;-47
2023/04/09 08:15:43;;;;;;;34.90;10.65;;;;;;;;;;5015913;28;20033;-46
2023/04/09 08:18:11;;;;;;;31.90;11.60;;;;;;;;;;5010592;28;20095;-48
2023/04/09 08:20:43;;;;;;;33.63;10.93;;;;;;;;;;5023518;28;20102;-46
2023/04/09 08:23:13;;;;;;;33.55;10.57;;;;;;;;;;5016958;28;20091;-46
2023/04/09 08:25:41;;;;;;;38.22;11.95;;;;;;;;;;5023390;28;20076;-48
2023/04/09 08:28:09;;;;;;;36.80;11.75;;;;;;;;;;5013912;28;20083;-47
2023/04/09 08:30:36;;;;;;;32.75;11.57;;;;;;;;;;5009715;28;20152;-47
2023/04/09 08:33:05;;;;;;;32.67;11.17;;;;;;;;;;5019545;28;20060;-48
2023/04/09 08:35:33;;;;;;;37.55;11.18;;;;;;;;;;5008124;28;20073;-46
2023/04/09 08:38:01;;;;;;;37.90;11.10;;;;;;;;;;5026878;28;20045;-46
2023/04/09 08:40:34;;;;;;;35.53;10.95;;;;;;;;;;5008921;28;20118;-46
2023/04/09 08:43:04;;;;;;;35.38;11.95;;;;;;;;;;5029947;28;20068;-48
2023/04/09 08:45:31;;;;;;;39.07;12.93;;;;;;;;;;5014187;28;20132;-49
2023/04/09 08:47:59;;;;;;;35.50;12.02;;;;;;;;;;5018845;28;20044;-47
2023/04/09 08:50:27;;;;;;;33.85;12.45;;;;;;;;;;5017065;28;20578;-46
2023/04/09 08:52:55;;;;;;;39.33;12.30;;;;;;;;;;5026593;28;20069;-48
2023/04/09 08:55:23;;;;;;;36.40;11.68;;;;;;;;;;5042933;28;20037;-45
2023/04/09 08:57:52;;;;;;;37.30;12.27;;;;;;;;;;5026848;28;20131;-48
2023/04/09 09:00:20;;;;;;;32.58;11.32;;;;;;;;;;5004315;28;20065;-46
2023/04/09 09:03:04;;;;;;;34.20;11.93;;;;;;;;;;5021375;28;20123;-46
2023/04/09 09:05:36;;;;;;;41.40;12.05;;;;;;;;;;5010854;28;20107;-46
2023/04/09 09:08:03;;;;;;;40.53;12.55;;;;;;;;;;5026912;28;20123;-46
2023/04/09 09:10:37;;;;;;;32.20;12.10;;;;;;;;;;5011820;28;20033;-47
2023/04/09 09:13:18;;;;;;;35.47;12.00;;;;;;;;;;5023663;28;20424;-45
2023/04/09 09:15:48;;;;;;;30.67;11.90;;;;;;;;;;5023121;28;20041;-46
2023/04/09 09:18:16;;;;;;;36.78;12.85;;;;;;;;;;5010831;28;20107;-45
2023/04/09 09:20:44;;;;;;;36.08;12.38;;;;;;;;;;5025077;28;20123;-45
2023/04/09 09:23:12;;;;;;;35.50;12.43;;;;;;;;;;5019089;28;20153;-46
2023/04/09 09:25:40;;;;;;;34.65;10.75;;;;;;;;;;5019722;28;20045;-47
2023/04/09 09:28:08;;;;;;;37.05;12.30;;;;;;;;;;5024631;28;20479;-47
2023/04/09 09:30:41;;;;;;;34.72;11.70;;;;;;;;;;5007658;28;20045;-50
2023/04/09 09:33:10;;;;;;;34.55;12.13;;;;;;;;;;5019116;28;20049;-46
2023/04/09 09:35:48;;;;;;;35.67;10.97;;;;;;;;;;5028398;28;20119;-46
2023/04/09 09:38:17;;;;;;;30.92;12.23;;;;;;;;;;4663262;28;10000667;-45
2023/04/09 09:40:44;;;;;;;34.07;12.37;;;;;;;;;;5012530;28;20099;-48
2023/04/09 09:43:12;;;;;;;31.25;11.15;;;;;;;;;;5019129;28;20627;-47
2023/04/09 09:45:43;;;;;;;34.20;11.88;;;;;;;;;;5011947;28;20397;-49
2023/04/09 09:48:11;;;;;;;32.05;12.88;;;;;;;;;;5016711;28;20041;-46
2023/04/09 09:50:40;;;;;;;36.85;12.32;;;;;;;;;;5010917;28;20140;-46
2023/04/09 09:53:11;;;;;;;33.47;12.77;;;;;;;;;;5018730;28;20041;-46
2023/04/09 09:55:39;;;;;;;38.42;12.70;;;;;;;;;;5016307;28;20515;-47
2023/04/09 09:58:10;;;;;;;33.05;14.18;;;;;;;;;;5024254;28;20052;-44
2023/04/09 10:00:40;;;;;;;32.65;11.85;;;;;;;;;;5005686;28;20041;-47
2023/04/09 10:03:11;;;;;;;36.10;12.27;;;;;;;;;;5007592;28;20091;-46
2023/04/09 10:05:40;;;;;;;29.43;10.90;;;;;;;;;;5005767;28;20041;-48
2023/04/09 10:08:08;;;;;;;32.13;11.65;;;;;;;;;;5018493;28;20088;-47
2023/04/09 10:10:36;;;;;;;30.55;12.35;;;;;;;;;;4670389;28;10000322;-48
2023/04/09 10:13:06;;;;;;;33.03;11.75;;;;;;;;;;5018683;28;20040;-47
2023/04/09 10:15:33;;;;;;;28.08;10.45;;;;;;;;;;5020255;28;20118;-50
2023/04/09 10:18:02;;;;;;;30.17;11.80;;;;;;;;;;5009947;28;20050;-47
2023/04/09 10:20:34;;;;;;;29.67;10.13;;;;;;;;;;5014801;28;20111;-48
2023/04/09 10:23:03;;;;;;;26.80;10.35;;;;;;;;;;5011100;28;20671;-49
2023/04/09 10:25:31;;;;;;;29.30;12.18;;;;;;;;;;5015918;28;20095;-49
2023/04/09 10:28:02;;;;;;;28.30;11.57;;;;;;;;;;5016706;28;20124;-49
2023/04/09 10:30:33;;;;;;;30.77;11.47;;;;;;;;;;5006181;28;20123;-50
2023/04/09 10:33:11;;;;;;;26.55;11.43;;;;;;;;;;5015022;28;20572;-49
2023/04/09 10:35:40;;;;;;;25.17;10.10;;;;;;;;;;5017342;28;20128;-48
2023/04/09 10:38:09;;;;;;;26.30;11.23;;;;;;;;;;5012055;28;20034;-47
2023/04/09 10:40:40;;;;;;;25.92;10.52;;;;;;;;;;5014973;28;20059;-46
2023/04/09 10:43:09;;;;;;;29.07;10.57;;;;;;;;;;5018062;28;20088;-50
2023/04/09 10:45:40;;;;;;;26.20;9.90;;;;;;;;;;5012541;28;20092;-47
2023/04/09 10:48:11;;;;;;;29.35;11.63;;;;;;;;;;5045900;28;20388;-46
2023/04/09 10:50:42;;;;;;;26.25;10.27;;;;;;;;;;5009944;28;20087;-49
2023/04/09 10:53:20;;;;;;;23.92;10.95;;;;;;;;;;5014210;28;20095;-47
2023/04/09 10:55:49;;;;;;;19.03;7.47;;;;;;;;;;5022323;28;20037;-48
2023/04/09 10:58:16;;;;;;;26.50;10.07;;;;;;;;;;5019260;28;20092;-47
2023/04/09 11:00:45;;;;;;;25.10;10.50;;;;;;;;;;5026243;28;20072;-49
2023/04/09 11:03:20;;;;;;;25.20;11.15;;;;;;;;;;5019778;28;20353;-50
2023/04/09 11:05:51;;;;;;;30.02;11.23;;;;;;;;;;5019188;28;20029;-49
2023/04/09 11:08:20;;;;;;;19.60;7.87;;;;;;;;;;5021942;28;20094;-49
2023/04/09 11:10:49;;;;;;;24.63;10.88;;;;;;;;;;5009657;28;20048;-47
2023/04/09 11:13:20;;;;;;;27.42;10.93;;;;;;;;;;5013722;28;20649;-45
2023/04/09 11:15:48;;;;;;;23.17;10.13;;;;;;;;;;5025056;28;20064;-48
2023/04/09 11:18:19;;;;;;;21.95;9.98;;;;;;;;;;5025327;28;20048;-47
2023/04/09 11:20:47;;;;;;;19.47;9.13;;;;;;;;;;5032563;28;20083;-49
2023/04/09 11:23:17;;;;;;;19.55;8.75;;;;;;;;;;5013001;28;20040;-46
2023/04/09 11:25:48;;;;;;;25.25;9.55;;;;;;;;;;5022335;28;20045;-47
2023/04/09 11:28:16;;;;;;;19.90;8.98;;;;;;;;;;5015138;28;20045;-48
2023/04/09 11:30:45;;;;;;;22.60;9.45;;;;;;;;;;5018205;28;20355;-46
2023/04/09 11:33:13;;;;;;;22.73;8.80;;;;;;;;;;5023552;28;20044;-46
2023/04/09 11:35:43;;;;;;;20.50;9.23;;;;;;;;;;5018894;28;20041;-45
2023/04/09 11:38:11;;;;;;;23.15;9.15;;;;;;;;;;5020848;28;20041;-46
2023/04/09 11:40:46;;;;;;;24.00;10.10;;;;;;;;;;5021766;28;20041;-48
2023/04/09 11:43:17;;;;;;;25.05;10.27;;;;;;;;;;5018765;28;20531;-45
2023/04/09 11:45:46;;;;;;;19.67;8.60;;;;;;;;;;5016017;28;20153;-48
2023/04/09 11:48:16;;;;;;;21.85;9.48;;;;;;;;;;5017013;28;20480;-47
2023/04/09 11:50:45;;;;;;;19.02;7.75;;;;;;;;;;5008570;28;20042;-46
2023/04/09 11:53:16;;;;;;;21.00;9.98;;;;;;;;;;5019443;28;20041;-47
2023/04/09 11:55:46;;;;;;;19.70;8.07;;;;;;;;;;5012722;28;20064;-48
2023/04/09 11:58:15;;;;;;;19.10;8.90;;;;;;;;;;5017850;28;20048;-48
2023/04/09 12:00:44;;;;;;;21.33;8.65;;;;;;;;;;5011686;28;20053;-48
2023/04/09 12:03:12;;;;;;;19.20;8.98;;;;;;;;;;5018147;28;20124;-48
2023/04/09 12:05:44;;;;;;;18.40;8.45;;;;;;;;;;5007353;28;20037;-48
2023/04/09 12:08:22;;;;;;;13.90;5.93;;;;;;;;;;5027520;28;20083;-46
2023/04/09 12:10:51;;;;;;;14.30;6.00;;;;;;;;;;4663731;28;10000024;-46
2023/04/09 12:13:20;;;;;;;14.90;6.72;;;;;;;;;;5012431;28;20072;-46
2023/04/09 12:15:49;;;;;;;18.70;7.65;;;;;;;;;;5018627;28;20060;-48
2023/04/09 12:18:16;;;;;;;18.55;6.82;;;;;;;;;;5011996;28;20045;-48
2023/04/09 12:20:46;;;;;;;21.30;6.22;;;;;;;;;;5017414;28;20041;-47
2023/04/09 12:23:15;;;;;;;16.40;6.33;;;;;;;;;;5016736;28;20033;-49
2023/04/09 12:25:44;;;;;;;16.13;7.53;;;;;;;;;;5017921;28;20089;-46
2023/04/09 12:28:14;;;;;;;14.93;6.28;;;;;;;;;;5019461;28;20046;-47
2023/04/09 12:30:42;;;;;;;10.70;4.45;;;;;;;;;;5015948;28;20111;-48
2023/04/09 12:33:10;;;;;;;14.20;5.90;;;;;;;;;;5026931;28;20032;-48
2023/04/09 12:35:38;;;;;;;12.87;5.10;;;;;;;;;;5016658;28;20041;-46
2023/04/09 12:38:06;;;;;;;12.43;5.03;;;;;;;;;;5024563;28;20393;-49
2023/04/09 12:40:35;;;;;;;12.02;5.07;;;;;;;;;;5015342;28;20422;-49
2023/04/09 12:43:02;;;;;;;13.55;5.75;;;;;;;;;;5014241;28;20045;-47
2023/04/09 12:45:31;;;;;;;11.13;5.30;;;;;;;;;;5020565;28;20045;-47
2023/04/09 12:47:59;;;;;;;12.90;5.80;;;;;;;;;;5019686;28;21530;-46
2023/04/09 12:50:27;;;;;;;12.63;5.43;;;;;;;;;;5020155;28;20479;-48
2023/04/09 12:52:55;;;;;;;14.07;6.03;;;;;;;;;;5013031;28;20026;-46
2023/04/09 12:55:23;;;;;;;13.27;5.25;;;;;;;;;;5019430;28;20552;-48
2023/04/09 12:57:50;;;;;;;13.23;5.40;;;;;;;;;;5010386;28;20128;-47
2023/04/09 13:00:19;;;;;;;12.90;4.80;;;;;;;;;;5018932;28;20048;-51
2023/04/09 13:02:48;;;;;;;8.35;3.42;;;;;;;;;;5019835;28;20037;-46
2023/04/09 13:05:16;;;;;;;11.48;5.20;;;;;;;;;;5015767;28;20303;-50
2023/04/09 13:07:44;;;;;;;12.48;4.72;;;;;;;;;;5014782;28;20562;-46
2023/04/09 13:10:12;;;;;;;12.23;4.80;;;;;;;;;;5013664;28;20073;-47
2023/04/09 13:12:39;;;;;;;11.00;5.07;;;;;;;;;;5023533;28;20132;-47
2023/04/09 13:15:08;;;;;;;12.20;5.10;;;;;;;;;;5032323;28;20111;-45
2023/04/09 13:17:37;;;;;;;14.07;4.53;;;;;;;;;;5024876;28;20045;-47
2023/04/09 13:20:07;;;;;;;13.70;5.00;;;;;;;;;;4668122;28;9999837;-47
2023/04/09 13:22:36;;;;;;;13.15;5.00;;;;;;;;;;5013930;28;20037;-49
2023/04/09 13:25:04;;;;;;;10.05;4.25;;;;;;;;;;5012070;28;20128;-48
2023/04/09 13:27:32;;;;;;;8.82;3.47;;;;;;;;;;5013583;28;20504;-46
2023/04/09 13:29:59;;;;;;;9.57;3.88;;;;;;;;;;5002135;28;20591;-44
2023/04/09 13:32:27;;;;;;;9.70;3.70;;;;;;;;;;5018707;28;20037;-46
2023/04/09 13:34:56;;;;;;;8.45;3.70;;;;;;;;;;5011895;28;20045;-48
2023/04/09 13:37:26;;;;;;;10.00;4.32;;;;;;;;;;4667787;28;10000389;-46
2023/04/09 13:39:55;;;;;;;10.35;4.35;;;;;;;;;;5012624;28;20045;-47
2023/04/09 13:42:23;;;;;;;7.97;3.03;;;;;;;;;;5015746;28;20053;-47
2023/04/09 13:44:51;;;;;;;7.90;3.30;;;;;;;;;;5015041;28;20047;-47
2023/04/09 13:47:18;;;;;;;7.18;2.80;;;;;;;;;;5008287;28;20132;-49
2023/04/09 13:49:46;;;;;;;7.07;3.03;;;;;;;;;;5033352;28;20094;-48
2023/04/09 13:52:14;;;;;;;5.78;2.22;;;;;;;;;;5042382;28;20069;-50
2023/04/09 13:54:43;;;;;;;6.40;2.75;;;;;;;;;;5022277;28;20045;-51
2023/04/09 13:57:11;;;;;;;6.70;2.33;;;;;;;;;;5013622;28;20040;-53
2023/04/09 13:59:40;;;;;;;7.50;2.45;;;;;;;;;;5022570;28;20455;-53
2023/04/09 14:02:08;;;;;;;7.45;2.10;;;;;;;;;;5009212;28;20132;-49
2023/04/09 14:04:36;;;;;;;5.50;1.98;;;;;;;;;;5018745;28;20036;-49
2023/04/09 14:07:05;;;;;;;6.57;2.35;;;;;;;;;;5008702;28;20505;-50
2023/04/09 14:09:32;;;;;;;9.93;2.93;;;;;;;;;;5011967;28;20053;-50
2023/04/09 14:12:01;;;;;;;6.55;2.38;;;;;;;;;;5011611;28;20033;-51
2023/04/09 14:14:29;;;;;;;7.60;3.00;;;;;;;;;;5028334;28;20087;-52
2023/04/09 14:16:57;;;;;;;6.88;2.08;;;;;;;;;;5008920;28;20415;-53
2023/04/09 14:19:24;;;;;;;7.80;2.20;;;;;;;;;;5012419;28;20718;-51
2023/04/09 14:21:54;;;;;;;5.93;2.10;;;;;;;;;;5015234;28;20102;-51
2023/04/09 14:24:22;;;;;;;7.05;2.30;;;;;;;;;;5019410;28;20037;-53
2023/04/09 14:26:51;;;;;;;8.45;2.90;;;;;;;;;;5019574;28;20040;-51
2023/04/09 14:29:21;;;;;;;7.47;2.00;;;;;;;;;;5015956;28;20128;-54
2023/04/09 14:31:50;;;;;;;6.93;2.28;;;;;;;;;;5014568;28;20662;-50
2023/04/09 14:34:18;;;;;;;5.60;2.40;;;;;;;;;;5017837;28;20044;-51